Latest Weather Observations for Mount Keith

IDW60801

Issued at 4:35 pm WST Friday 25 July 2014 (issued every 30 minutes, with the page automatically refreshed every 10 minutes)

About weather observations | Map of weather stations | Latest weather observations for WA | Other Formats
Station Details ID: 512019 Name: MOUNT KEITH Lat: -27.29 Lon: 120.55 Height: 542.33 m
Data from the previous 72 hours. | See also: Recent months for locations in Western Australia
Date/Time
WST
Temp
°C
App
Temp
°C
Dew
Point
Rel
Hum
%
Delta-T
°C
Wind Press
QNH
hPa
Press
MSL
hPa
Rain
since 9 am
mm
Dir
 
Spd
km/h
Gust
km/h
Spd
kts
Gust
kts
25/04:30pm 19.8 15.7 -0.2 26 9.0 NE 11 19 6 10 1022.0 - 0.0
25/04:00pm 20.0 15.6 0.5 27 8.9 NNE 13 19 7 10 1021.9 1021.5 0.0
25/03:30pm 19.8 14.8 1.3 29 8.6 NE 17 24 9 13 1021.9 - 0.0
25/03:00pm 19.6 14.2 1.1 29 8.5 NE 19 26 10 14 1021.8 1021.4 0.0
25/02:30pm 19.4 14.3 0.9 29 8.5 NE 17 24 9 13 1021.9 - 0.0
25/02:00pm 19.1 15.1 0.7 29 8.4 NNE 11 20 6 11 1022.2 1021.8 0.0
25/01:30pm 18.3 13.9 0.4 30 8.1 NNE 13 22 7 12 1022.5 - 0.0
25/01:00pm 18.1 13.4 1.2 32 7.7 NE 15 24 8 13 1023.0 1022.6 0.0
25/12:30pm 17.5 13.1 0.6 32 7.6 NE 13 22 7 12 1023.5 - 0.0
25/12:00pm 16.6 11.4 0.3 33 7.2 NNE 17 26 9 14 1024.0 1023.7 0.0
25/11:30am 16.8 12.7 2.0 37 6.8 NE 13 20 7 11 1024.6 - 0.0
25/11:00am 15.7 11.3 2.8 42 6.0 NE 15 24 8 13 1025.1 1024.7 0.0
25/10:30am 15.2 10.9 3.0 44 5.7 NE 15 20 8 11 1025.5 - 0.0
25/10:00am 14.5 10.8 4.5 51 4.7 NE 13 20 7 11 1025.5 1025.1 0.0
25/09:30am 13.8 10.2 4.9 55 4.3 ENE 13 17 7 9 1025.7 - 0.0
25/09:00am 12.1 8.5 4.8 61 3.4 ENE 13 19 7 10 1025.6 1025.3 0.0
25/08:30am 10.8 7.1 4.7 66 2.8 ENE 13 15 7 8 1025.4 - 0.0
25/08:00am 9.3 6.9 4.5 72 2.2 E 6 9 3 5 1025.1 1024.7 0.0
25/07:30am 6.0 4.7 4.0 87 0.9 CALM 0 0 0 0 1024.9 - 0.0
25/07:00am 3.7 2.1 2.2 90 0.6 CALM 0 0 0 0 1024.4 1024.1 0.0
25/06:30am 4.4 2.1 2.9 90 0.6 SSE 4 6 2 3 1024.2 - 0.0
25/06:00am 4.7 3.2 3.0 89 0.7 SSE 0 0 0 0 1023.7 1023.3 0.0
25/05:30am 5.5 2.8 3.5 87 0.9 SSE 7 9 4 5 1023.5 - 0.0
25/05:00am 6.2 3.1 3.7 84 1.1 SSE 9 11 5 6 1023.4 1023.0 0.0
25/04:30am 6.8 3.4 4.1 83 1.2 S 11 11 6 6 1023.2 - 0.0
25/04:00am 7.0 4.0 4.1 82 1.3 S 9 11 5 6 1023.0 1022.6 0.0
25/03:30am 7.4 4.0 4.0 79 1.5 SSE 11 13 6 7 1022.8 - 0.0
25/03:00am 7.5 4.5 3.9 78 1.6 SSE 9 11 5 6 1022.8 1022.5 0.0
25/02:30am 8.2 5.2 4.0 75 1.9 S 9 13 5 7 1022.7 - 0.0
25/02:00am 8.9 5.6 4.3 73 2.1 S 11 15 6 8 1022.6 1022.3 0.0
25/01:30am 8.7 5.5 4.9 77 1.7 S 11 13 6 7 1022.7 - 0.0
25/01:00am 6.3 3.3 2.0 74 1.8 SSW 7 7 4 4 1022.7 1022.4 0.0
25/12:30am 6.7 3.9 2.2 73 1.9 SSW 6 7 3 4 1022.7 - 0.0
25/12:00am 7.7 4.9 3.0 72 2.0 SSW 7 9 4 5 1023.0 1022.6 0.0
 
Date/Time
WST
Temp
°C
App
Temp
°C
Dew
Point
Rel
Hum
%
Delta-T
°C
Wind Press
QNH
hPa
Press
MSL
hPa
Rain
since 9 am
mm
Dir
 
Spd
km/h
Gust
km/h
Spd
kts
Gust
kts
24/11:30pm 8.8 5.7 3.8 71 2.2 SSW 9 11 5 6 1023.3 - 0.0
24/11:00pm 7.9 4.6 2.6 69 2.3 SSW 9 11 5 6 1023.2 1022.8 0.0
24/10:30pm 7.4 4.6 1.9 68 2.3 SSW 6 9 3 5 1023.2 - 0.0
24/10:00pm 7.9 5.1 2.0 66 2.5 W 6 7 3 4 1023.0 1022.6 0.0
24/09:30pm 8.8 6.1 2.4 64 2.8 W 6 7 3 4 1023.1 - 0.0
24/09:00pm 8.6 5.6 2.2 64 2.7 W 7 9 4 5 1023.0 1022.6 0.0
24/08:30pm 9.8 7.1 2.4 60 3.2 SSW 6 7 3 4 1022.8 - 0.0
24/08:00pm 11.5 8.3 2.8 55 3.9 S 9 11 5 6 1022.5 1022.2 0.0
24/07:30pm 11.9 8.6 2.6 53 4.2 S 9 11 5 6 1022.3 - 0.0
24/07:00pm 13.4 9.4 2.9 49 4.8 SSW 13 15 7 8 1022.2 1021.8 0.0
24/06:30pm 13.6 10.0 2.8 48 4.9 SSW 11 13 6 7 1021.9 - 0.0
24/06:00pm 14.5 11.2 2.7 45 5.4 SSW 9 11 5 6 1021.6 1021.2 0.0
24/05:30pm 15.7 12.1 2.8 42 6.0 SSW 11 17 6 9 1021.4 - 0.0
24/05:00pm 16.6 12.9 2.6 39 6.5 SSW 11 15 6 8 1021.1 1020.7 0.0
24/04:30pm 17.1 11.9 2.7 38 6.8 SW 19 20 10 11 1020.8 - 0.0
24/04:00pm 17.2 13.1 2.0 36 7.0 S 13 19 7 10 1020.6 1020.2 0.0
24/03:30pm 17.2 13.1 2.0 36 7.0 SSW 13 20 7 11 1020.6 - 0.0
24/03:00pm 17.6 13.6 2.8 37 7.0 S 13 20 7 11 1020.5 1020.1 0.0
24/02:30pm 17.0 12.2 2.6 38 6.7 SSW 17 26 9 14 1020.5 - 0.0
24/02:00pm 17.2 13.5 2.4 37 6.9 S 11 20 6 11 1020.8 1020.5 0.0
24/01:30pm 16.2 12.4 1.9 38 6.6 S 11 20 6 11 1021.1 - 0.0
24/01:00pm 16.5 12.5 2.9 40 6.4 S 13 19 7 10 1021.5 1021.1 0.0
24/12:30pm 15.4 11.5 3.5 45 5.6 S 13 20 7 11 1022.0 - 0.0
24/12:00pm 14.9 11.1 3.7 47 5.3 WSW 13 19 7 10 1022.5 1022.2 0.0
24/11:30am 14.2 9.6 3.9 50 4.8 SSW 17 26 9 14 1023.0 - 0.0
24/11:00am 13.3 9.5 3.9 53 4.4 SW 13 24 7 13 1023.6 1023.2 0.0
24/10:30am 12.3 7.3 3.8 56 3.9 SSW 19 24 10 13 1024.1 - 0.0
24/10:00am 11.9 7.0 3.9 58 3.7 SW 19 26 10 14 1024.2 1023.9 0.0
24/09:30am 10.9 6.2 3.2 59 3.5 SW 17 22 9 12 1024.4 - 0.0
24/09:00am 10.0 5.9 2.4 59 3.3 W 13 19 7 10 1024.3 1024.0 0.0
24/08:30am 8.9 4.7 1.6 60 3.1 W 13 17 7 9 1023.8 - 0.0
24/08:00am 7.1 3.3 2.0 70 2.1 W 11 15 6 8 1023.4 1023.0 0.0
24/07:30am 4.4 0.8 0.9 78 1.4 WNW 9 11 5 6 1022.8 - 0.0
24/07:00am 3.1 -0.5 0.5 83 1.0 W 9 9 5 5 1022.5 1022.2 0.0
24/06:30am 3.0 -1.0 0.4 83 1.0 W 11 13 6 7 1022.1 - 0.0
24/06:00am 3.8 -0.5 0.8 81 1.2 W 13 15 7 8 1021.8 1021.4 0.0
24/05:30am 3.6 -0.7 1.0 83 1.0 W 13 13 7 7 1021.7 - 0.0
24/05:00am 3.5 -0.4 0.9 83 1.0 W 11 13 6 7 1021.4 1021.0 0.0
24/04:30am 3.1 0.0 0.3 82 1.1 W 6 7 3 4 1021.3 - 0.0
24/04:00am 4.0 0.1 1.0 81 1.2 W 11 13 6 7 1021.3 1020.9 0.0
24/03:30am 3.2 -0.1 0.4 82 1.1 W 7 11 4 6 1021.5 - 0.0
24/03:00am 4.3 0.3 0.8 78 1.4 WSW 11 15 6 8 1021.5 1021.1 0.0
24/02:30am 4.2 0.3 1.2 81 1.2 W 11 13 6 7 1021.6 - 0.0
24/02:00am 3.3 0.0 0.2 80 1.2 W 7 9 4 5 1021.5 1021.1 0.0
24/01:30am 4.1 0.6 1.0 80 1.2 W 9 11 5 6 1021.5 - 0.0
24/01:00am 4.8 1.2 0.9 76 1.6 SW 9 11 5 6 1021.4 1021.0 0.0
24/12:30am 6.4 2.6 1.5 71 2.0 SW 11 13 6 7 1021.4 - 0.0
24/12:00am 6.7 2.9 1.8 71 2.0 SW 11 15 6 8 1021.6 1021.2 0.0
 
Date/Time
WST
Temp
°C
App
Temp
°C
Dew
Point
Rel
Hum
%
Delta-T
°C
Wind Press
QNH
hPa
Press
MSL
hPa
Rain
since 9 am
mm
Dir
 
Spd
km/h
Gust
km/h
Spd
kts
Gust
kts
23/11:30pm 6.0 2.5 1.2 71 2.0 WSW 9 11 5 6 1021.7 - 0.0
23/11:00pm 7.5 3.7 1.6 66 2.5 SW 11 17 6 9 1021.8 1021.4 0.0
23/10:30pm 8.3 3.0 1.9 64 2.7 SSW 19 24 10 13 1022.1 - 0.0
23/10:00pm 8.1 3.9 1.7 64 2.7 SSW 13 15 7 8 1022.2 1021.8 0.0
23/09:30pm 8.9 5.1 1.6 60 3.1 SSW 11 15 6 8 1022.2 - 0.0
23/09:00pm 9.7 4.7 1.4 56 3.5 SSW 17 20 9 11 1021.8 1021.4 0.0
23/08:30pm 9.7 5.8 0.9 54 3.7 SSW 11 17 6 9 1021.4 - 0.0
23/08:00pm 9.9 5.9 0.8 53 3.8 SSW 11 13 6 7 1021.3 1020.9 0.0
23/07:30pm 10.7 6.7 0.7 50 4.3 S 11 15 6 8 1021.2 - 0.0
23/07:00pm 11.6 7.3 1.3 49 4.5 S 13 19 7 10 1021.0 1020.6 0.0
23/06:30pm 12.2 7.5 1.2 47 4.8 S 15 19 8 10 1020.5 - 0.0
23/06:00pm 13.3 8.3 -1.1 37 6.0 SW 15 19 8 10 1020.2 1019.8 0.0
23/05:30pm 14.1 9.1 -1.5 34 6.5 SW 15 20 8 11 1020.0 - 0.0
23/05:00pm 15.0 9.0 -1.5 32 6.9 SW 20 26 11 14 1019.9 1019.5 0.0
23/04:30pm 15.8 10.0 -1.3 31 7.3 SW 19 26 10 14 1019.6 - 0.0
23/04:00pm 15.7 9.8 -0.9 32 7.1 SW 20 28 11 15 1019.3 1018.9 0.0
23/03:30pm 15.9 10.3 -0.3 33 7.1 SW 19 30 10 16 1019.3 - 0.0
23/03:00pm 16.0 10.2 -0.2 33 7.1 SW 20 28 11 15 1019.3 1018.9 0.0
23/02:30pm 15.6 9.8 -0.2 34 6.9 SW 20 28 11 15 1019.4 - 0.0
23/02:00pm 15.6 10.5 0.6 36 6.6 WSW 17 22 9 12 1019.5 1019.1 0.0
23/01:30pm 15.0 10.1 1.9 41 5.9 WSW 17 32 9 17 1019.7 - 0.0
23/01:00pm 14.9 10.4 2.4 43 5.7 WSW 15 30 8 16 1019.8 1019.4 0.0
23/12:30pm 13.9 8.6 2.8 47 5.1 WSW 20 28 11 15 1020.1 - 0.0
23/12:00pm 13.6 8.0 3.4 50 4.7 WSW 22 30 12 16 1020.8 1020.5 0.0
23/11:30am 13.0 7.7 3.1 51 4.5 SW 20 30 11 16 1021.5 - 0.0
23/11:00am 12.2 7.6 3.9 57 3.8 SW 17 26 9 14 1022.1 1021.7 0.0
23/10:30am 11.6 6.7 4.3 61 3.4 SW 19 26 10 14 1022.7 - 0.0
23/10:00am 10.8 6.8 4.7 66 2.8 W 15 20 8 11 1022.8 1022.5 0.0
23/09:30am 9.8 6.2 4.8 71 2.3 SW 13 20 7 11 1022.5 - 0.0
23/09:00am 9.2 4.8 5.0 75 1.9 SSW 17 26 9 14 1022.5 1022.2 0.0
23/08:30am 8.2 3.4 4.8 79 1.6 SW 19 26 10 14 1022.2 - 0.0
23/08:00am 7.5 3.1 4.5 81 1.3 SW 17 20 9 11 1022.0 1021.6 0.0
23/07:30am 6.0 1.7 3.5 84 1.1 SW 15 19 8 10 1021.7 - 0.0
23/07:00am 5.5 0.4 3.2 85 1.0 SSW 19 22 10 12 1021.0 1020.6 0.0
23/06:30am 5.2 0.0 2.7 84 1.1 SW 19 24 10 13 1020.8 - 0.0
23/06:00am 4.9 0.0 2.3 83 1.1 SW 17 22 9 12 1020.6 1020.2 0.0
23/05:30am 5.2 0.3 2.2 81 1.3 WSW 17 20 9 11 1020.8 - 0.0
23/05:00am 5.3 0.4 2.1 80 1.3 WSW 17 19 9 10 1020.8 1020.5 0.0
23/04:30am 5.7 0.8 2.0 77 1.5 SW 17 20 9 11 1020.4 - 0.0
23/04:00am 5.9 1.4 2.0 76 1.6 SW 15 19 8 10 1020.0 1019.6 0.0
23/03:30am 6.1 1.1 1.2 71 2.0 SW 17 20 9 11 1020.3 - 0.0
23/03:00am 6.0 0.9 0.8 69 2.1 WSW 17 19 9 10 1020.5 1020.1 0.0
23/02:30am 6.2 1.1 0.7 68 2.2 WSW 17 22 9 12 1020.4 - 0.0
23/02:00am 6.2 1.1 0.7 68 2.2 WSW 17 20 9 11 1020.4 1020.0 0.0
23/01:30am 6.6 1.5 0.7 66 2.4 SW 17 20 9 11 1020.5 - 0.0
23/01:00am 7.2 2.1 0.9 64 2.6 SW 17 20 9 11 1020.6 1020.2 0.0
23/12:30am 8.0 3.3 1.0 61 2.9 SW 15 20 8 11 1020.6 - 0.0
23/12:00am 8.7 4.0 0.9 58 3.3 WSW 15 19 8 10 1020.7 1020.3 0.0
 
Date/Time
WST
Temp
°C
App
Temp
°C
Dew
Point
Rel
Hum
%
Delta-T
°C
Wind Press
QNH
hPa
Press
MSL
hPa
Rain
since 9 am
mm
Dir
 
Spd
km/h
Gust
km/h
Spd
kts
Gust
kts
22/11:30pm 8.9 4.2 1.1 58 3.3 WSW 15 20 8 11 1020.8 - 0.0
22/11:00pm 9.0 4.8 1.4 59 3.2 WSW 13 17 7 9 1021.0 1020.6 0.0
22/10:30pm 9.5 5.3 1.4 57 3.5 WSW 13 19 7 10 1020.7 - 0.0
22/10:00pm 9.9 5.7 1.8 57 3.5 WSW 13 19 7 10 1020.6 1020.2 0.0
22/09:30pm 10.1 6.0 2.2 58 3.5 WSW 13 15 7 8 1020.5 - 0.0
22/09:00pm 10.7 6.6 2.3 56 3.7 WSW 13 17 7 9 1020.5 1020.1 0.0
22/08:30pm 11.5 6.3 2.3 53 4.1 WSW 19 24 10 13 1020.4 - 0.0
22/08:00pm 12.1 6.7 2.6 52 4.3 WSW 20 28 11 15 1020.0 1019.6 0.0
22/07:30pm 12.6 6.8 2.5 50 4.5 WSW 22 30 12 16 1019.6 - 0.0
22/07:00pm 13.0 7.7 2.8 50 4.6 WSW 20 26 11 14 1019.0 1018.5 0.0
22/06:30pm 13.5 8.3 2.4 47 5.0 WSW 19 28 10 15 1018.4 - 0.0
22/06:00pm 14.2 7.3 2.8 46 5.2 WSW 28 43 15 23 1017.9 1017.5 0.0
22/05:30pm 14.6 7.4 2.8 45 5.4 W 30 46 16 25 1017.6 - 0.0
22/05:00pm 15.1 7.5 3.9 47 5.3 WSW 33 43 18 23 1017.3 1016.8 0.0

Other Formats:

Comma delimited format used in spreadsheet applications
http://www.bom.gov.au/fwo/IDW60801/IDW60801.99434.axf

JavaScript Object Notation format (JSON) in row-major order
http://www.bom.gov.au/fwo/IDW60801/IDW60801.99434.json